createdAt,value
2023-11-26T00:01:53.402Z,15.27
2023-11-26T00:04:25.645Z,10.90
2023-11-26T00:06:52.556Z,14.57
2023-11-26T00:09:19.402Z,11.23
2023-11-26T00:11:46.370Z,10.47
2023-11-26T00:14:13.288Z,11.10
2023-11-26T00:16:42.601Z,10.93
2023-11-26T00:19:09.538Z,10.33
2023-11-26T00:21:36.313Z,13.70
2023-11-26T00:24:03.451Z,16.27
2023-11-26T00:26:32.989Z,13.13
2023-11-26T00:28:59.899Z,12.57
2023-11-26T00:31:26.910Z,10.73
2023-11-26T00:33:56.317Z,11.57
2023-11-26T00:36:23.184Z,14.03
2023-11-26T00:38:50.180Z,12.33
2023-11-26T00:41:17.469Z,11.63
2023-11-26T00:43:44.508Z,13.73
2023-11-26T00:46:16.624Z,10.90
2023-11-26T00:48:43.387Z,14.53
2023-11-26T00:51:20.135Z,11.73
2023-11-26T00:53:50.403Z,12.37
2023-11-26T00:56:17.292Z,14.10
2023-11-26T00:58:44.526Z,10.87
2023-11-26T01:01:13.706Z,14.07
2023-11-26T01:03:43.266Z,9.33
2023-11-26T01:06:10.244Z,11.93
2023-11-26T01:08:37.182Z,12.73
2023-11-26T01:11:07.157Z,12.73
2023-11-26T01:13:34.031Z,11.17
2023-11-26T01:16:03.332Z,10.30
2023-11-26T01:18:30.192Z,9.27
2023-11-26T01:20:57.140Z,10.40
2023-11-26T01:23:26.277Z,13.03
2023-11-26T01:25:53.239Z,10.67
2023-11-26T01:28:22.577Z,12.97
2023-11-26T01:30:51.899Z,10.23
2023-11-26T01:33:20.856Z,15.87
2023-11-26T01:35:50.236Z,11.27
2023-11-26T01:38:17.157Z,12.47
2023-11-26T01:40:44.015Z,13.07
2023-11-26T01:43:10.993Z,8.70
2023-11-26T01:45:37.864Z,15.03
2023-11-26T01:48:09.509Z,12.83
2023-11-26T01:50:38.538Z,11.77
2023-11-26T01:53:05.414Z,11.57
2023-11-26T01:55:32.269Z,9.83
2023-11-26T01:57:59.151Z,10.23
2023-11-26T02:00:26.004Z,8.83
2023-11-26T02:02:55.225Z,10.93
2023-11-26T02:05:22.135Z,9.30
2023-11-26T02:07:49.181Z,7.77
2023-11-26T02:10:16.106Z,10.70
2023-11-26T02:13:04.810Z,9.30
2023-11-26T02:15:32.510Z,9.73
2023-11-26T02:18:01.916Z,9.70
2023-11-26T02:20:29.047Z,8.67
2023-11-26T02:22:55.855Z,9.70
2023-11-26T02:25:31.539Z,7.73
2023-11-26T02:28:00.565Z,7.73
2023-11-26T02:30:30.431Z,10.23
2023-11-26T02:32:57.351Z,10.50
2023-11-26T02:35:24.298Z,10.90
2023-11-26T02:37:51.327Z,6.70
2023-11-26T02:40:18.269Z,5.77
2023-11-26T02:42:50.222Z,7.47
2023-11-26T02:45:17.057Z,6.03
2023-11-26T02:47:46.132Z,8.73
2023-11-26T02:50:18.358Z,6.57
2023-11-26T02:52:45.201Z,7.57
2023-11-26T02:55:12.153Z,5.93
2023-11-26T02:57:38.924Z,7.80
2023-11-26T03:00:16.849Z,7.17
2023-11-26T03:02:44.709Z,7.83
2023-11-26T03:05:19.154Z,7.90
2023-11-26T03:07:53.414Z,6.53
2023-11-26T03:10:43.930Z,7.63
2023-11-26T03:13:22.340Z,5.70
2023-11-26T03:15:52.220Z,8.10
2023-11-26T03:18:21.386Z,7.23
2023-11-26T03:20:53.461Z,5.47
2023-11-26T03:23:25.437Z,7.57
2023-11-26T03:25:52.888Z,6.03
2023-11-26T03:28:23.559Z,7.87
2023-11-26T03:30:57.966Z,6.00
2023-11-26T03:33:27.774Z,7.63
2023-11-26T03:35:56.771Z,7.40
2023-11-26T03:38:23.615Z,6.60
2023-11-26T03:40:50.542Z,8.47
2023-11-26T03:43:17.530Z,8.87
2023-11-26T03:45:46.789Z,6.43
2023-11-26T03:48:13.705Z,10.50
2023-11-26T03:50:40.557Z,7.43
2023-11-26T03:53:07.489Z,8.20
2023-11-26T03:55:34.734Z,7.60
2023-11-26T03:58:01.609Z,7.50
2023-11-26T04:00:31.003Z,8.67
2023-11-26T04:03:00.413Z,6.37
2023-11-26T04:05:29.784Z,6.77
2023-11-26T04:07:56.861Z,7.97
2023-11-26T04:10:31.481Z,8.03
2023-11-26T04:13:05.145Z,7.97
2023-11-26T04:15:33.180Z,6.03
2023-11-26T04:18:00.405Z,6.93
2023-11-26T04:20:29.514Z,7.63
2023-11-26T04:22:56.340Z,6.07
2023-11-26T04:25:23.615Z,6.37
2023-11-26T04:27:50.727Z,7.27
2023-11-26T04:30:18.308Z,6.77
2023-11-26T04:32:45.310Z,5.80
2023-11-26T04:35:12.483Z,5.90
2023-11-26T04:37:41.671Z,6.73
2023-11-26T04:40:08.938Z,8.27
2023-11-26T04:42:35.750Z,5.47
2023-11-26T04:45:03.124Z,9.00
2023-11-26T04:47:30.086Z,6.30
2023-11-26T04:49:59.639Z,8.37
2023-11-26T04:52:28.965Z,9.23
2023-11-26T04:54:55.736Z,7.50
2023-11-26T04:57:22.670Z,7.23
2023-11-26T04:59:49.426Z,9.73
2023-11-26T05:02:19.690Z,8.27
2023-11-26T05:04:46.901Z,17.10
2023-11-26T05:07:16.195Z,7.77
2023-11-26T05:09:42.970Z,8.27
2023-11-26T05:12:16.850Z,6.63
2023-11-26T05:14:48.970Z,7.40
2023-11-26T05:17:18.209Z,6.37
2023-11-26T05:19:47.750Z,6.13
2023-11-26T05:22:14.528Z,7.50
2023-11-26T05:24:42.642Z,5.60
2023-11-26T05:27:09.492Z,6.10
2023-11-26T05:29:39.607Z,7.20
2023-11-26T05:32:06.811Z,7.37
2023-11-26T05:34:34.330Z,5.97
2023-11-26T05:37:02.194Z,6.20
2023-11-26T05:39:29.095Z,7.33
2023-11-26T05:41:58.162Z,9.00
2023-11-26T05:44:25.044Z,9.07
2023-11-26T05:46:51.904Z,7.70
2023-11-26T05:49:18.934Z,7.40
2023-11-26T05:51:48.027Z,7.87
2023-11-26T05:54:15.561Z,6.07
2023-11-26T05:56:47.556Z,6.80
2023-11-26T05:59:14.378Z,5.40
2023-11-26T06:01:43.751Z,5.53
2023-11-26T06:04:10.664Z,10.77
2023-11-26T06:06:42.449Z,6.23
2023-11-26T06:09:09.460Z,5.10
2023-11-26T06:11:36.260Z,7.67
2023-11-26T06:14:03.203Z,7.47
2023-11-26T06:16:30.108Z,8.43
2023-11-26T06:18:56.945Z,9.03
2023-11-26T06:21:26.019Z,6.67
2023-11-26T06:23:56.147Z,8.57
2023-11-26T06:26:23.218Z,7.93
2023-11-26T06:28:50.100Z,7.83
2023-11-26T06:31:23.479Z,6.23
2023-11-26T06:33:50.658Z,6.70
2023-11-26T06:36:23.198Z,6.47
2023-11-26T06:38:51.565Z,5.40
2023-11-26T06:41:25.390Z,7.33
2023-11-26T06:43:55.604Z,9.50
2023-11-26T06:46:23.533Z,7.90
2023-11-26T06:48:51.389Z,5.60
2023-11-26T06:51:23.769Z,8.07
2023-11-26T06:53:54.231Z,6.73
2023-11-26T06:56:21.269Z,6.33
2023-11-26T06:58:48.335Z,7.47
2023-11-26T07:01:15.273Z,6.30
2023-11-26T07:03:42.471Z,6.23
2023-11-26T07:06:10.252Z,5.73
2023-11-26T07:08:44.659Z,7.63
2023-11-26T07:11:24.313Z,5.37
2023-11-26T07:13:55.089Z,7.70
2023-11-26T07:16:22.558Z,6.83
2023-11-26T07:18:51.147Z,6.83
2023-11-26T07:21:21.208Z,5.20
2023-11-26T07:23:48.396Z,6.27
2023-11-26T07:26:17.442Z,9.57
2023-11-26T07:28:44.310Z,5.97
2023-11-26T07:31:27.721Z,5.53
2023-11-26T07:33:57.368Z,5.70
2023-11-26T07:36:24.921Z,6.20
2023-11-26T07:39:02.152Z,6.43
2023-11-26T07:41:31.434Z,9.20
2023-11-26T07:43:58.907Z,7.40
2023-11-26T07:46:27.178Z,7.90
2023-11-26T07:48:56.456Z,7.37
2023-11-26T07:51:24.121Z,8.27
2023-11-26T07:53:53.076Z,6.33
2023-11-26T07:56:19.942Z,6.63
2023-11-26T07:58:46.986Z,8.17
2023-11-26T08:01:19.725Z,7.30
2023-11-26T08:03:46.637Z,5.73
2023-11-26T08:06:15.407Z,6.53
2023-11-26T08:08:44.593Z,6.40
2023-11-26T08:11:17.337Z,5.90
2023-11-26T08:13:44.274Z,5.83
2023-11-26T08:16:11.636Z,7.07
2023-11-26T08:18:38.957Z,7.23
2023-11-26T08:21:08.380Z,7.83
2023-11-26T08:23:42.906Z,7.63
2023-11-26T08:26:14.532Z,7.47
2023-11-26T08:28:42.327Z,6.43
2023-11-26T08:31:11.449Z,6.10
2023-11-26T08:33:42.986Z,4.73
2023-11-26T08:36:13.743Z,7.77
2023-11-26T08:38:43.530Z,7.17
2023-11-26T08:41:13.840Z,6.27
2023-11-26T08:43:50.518Z,10.17
2023-11-26T08:46:21.341Z,5.80
2023-11-26T08:48:53.713Z,6.40
2023-11-26T08:51:21.245Z,7.30
2023-11-26T08:53:50.625Z,6.00
2023-11-26T08:56:19.990Z,7.10
2023-11-26T08:58:47.288Z,6.43
2023-11-26T09:01:14.087Z,5.37
2023-11-26T09:03:41.038Z,5.40
2023-11-26T09:06:14.146Z,5.73
2023-11-26T09:08:41.181Z,5.77
2023-11-26T09:11:08.035Z,6.50
2023-11-26T09:13:34.881Z,5.70
2023-11-26T09:16:01.858Z,6.07
2023-11-26T09:18:30.944Z,8.97
2023-11-26T09:20:58.598Z,7.37
2023-11-26T09:23:25.447Z,5.87
2023-11-26T09:25:52.275Z,5.97
2023-11-26T09:28:19.104Z,7.30
2023-11-26T09:30:51.371Z,7.43
2023-11-26T09:33:23.400Z,6.60
2023-11-26T09:35:55.018Z,5.83
2023-11-26T09:38:21.999Z,7.00
2023-11-26T09:40:48.912Z,8.20
2023-11-26T09:43:16.047Z,7.03
2023-11-26T09:45:48.292Z,8.87
2023-11-26T09:48:15.282Z,8.03
2023-11-26T09:50:42.496Z,9.13
2023-11-26T09:53:11.805Z,6.93
2023-11-26T09:55:40.008Z,8.90
2023-11-26T09:58:07.008Z,7.53
2023-11-26T10:00:33.842Z,5.90
2023-11-26T10:03:02.447Z,6.30
2023-11-26T10:05:29.326Z,6.37
2023-11-26T10:07:56.360Z,8.67
2023-11-26T10:10:56.460Z,7.83
2023-11-26T10:13:24.828Z,8.10
2023-11-26T10:15:51.868Z,7.57
2023-11-26T10:18:27.487Z,7.37
2023-11-26T10:20:56.340Z,7.40
2023-11-26T10:23:37.397Z,7.57
2023-11-26T10:26:07.092Z,6.70
2023-11-26T10:28:36.101Z,11.10
2023-11-26T10:31:06.577Z,6.90
2023-11-26T10:33:35.736Z,8.17
2023-11-26T10:36:02.652Z,8.53
2023-11-26T10:38:35.624Z,6.80
2023-11-26T10:41:02.644Z,7.70
2023-11-26T10:43:33.811Z,10.80
2023-11-26T10:46:06.235Z,7.93
2023-11-26T10:48:33.221Z,8.13
2023-11-26T10:51:17.025Z,6.13
2023-11-26T10:53:49.404Z,7.30
2023-11-26T10:56:16.621Z,7.47
2023-11-26T10:58:50.327Z,8.10
2023-11-26T11:01:19.729Z,8.77
2023-11-26T11:03:46.669Z,7.00
2023-11-26T11:06:15.793Z,8.90
2023-11-26T11:08:48.960Z,6.83
2023-11-26T11:12:00.000Z,5.57
2023-11-26T11:14:26.827Z,7.10
2023-11-26T11:16:53.866Z,5.73
2023-11-26T11:19:51.515Z,6.03
2023-11-26T11:22:18.461Z,6.33
2023-11-26T11:24:45.417Z,6.07
2023-11-26T11:27:12.546Z,5.50
2023-11-26T11:29:43.330Z,4.87
2023-11-26T11:32:15.400Z,10.47
2023-11-26T11:34:42.225Z,7.33
2023-11-26T11:37:10.246Z,4.80
2023-11-26T11:39:55.207Z,5.10
2023-11-26T11:42:27.692Z,5.33
2023-11-26T11:44:55.954Z,9.13
2023-11-26T11:47:43.273Z,6.90
2023-11-26T11:50:11.151Z,6.47
2023-11-26T11:52:39.074Z,6.90
2023-11-26T11:55:35.013Z,5.83
2023-11-26T11:58:13.557Z,5.13
2023-11-26T12:00:43.641Z,7.10
2023-11-26T12:03:16.316Z,5.40
2023-11-26T12:05:45.283Z,8.60
2023-11-26T12:08:15.654Z,6.27
2023-11-26T12:10:45.814Z,8.90
2023-11-26T12:13:12.792Z,5.50
2023-11-26T12:15:54.262Z,7.53
2023-11-26T12:18:21.196Z,6.97
2023-11-26T12:20:50.682Z,5.67
2023-11-26T12:23:39.969Z,7.07
2023-11-26T12:26:07.308Z,8.43
2023-11-26T12:28:47.496Z,8.93
2023-11-26T12:31:15.053Z,6.50
2023-11-26T12:33:45.838Z,4.83
2023-11-26T12:36:13.793Z,6.20
2023-11-26T12:38:41.269Z,7.43
2023-11-26T12:41:17.150Z,6.70
2023-11-26T12:43:46.462Z,8.27
2023-11-26T12:46:14.531Z,3.53
2023-11-26T12:48:41.962Z,4.33
2023-11-26T12:51:08.954Z,5.43
2023-11-26T12:53:44.941Z,10.13
2023-11-26T12:56:11.762Z,6.00
2023-11-26T12:58:38.620Z,6.13
2023-11-26T13:01:05.733Z,6.20
2023-11-26T13:03:32.674Z,6.17
2023-11-26T13:06:06.709Z,5.47
2023-11-26T13:08:33.498Z,4.70
2023-11-26T13:11:10.085Z,5.67
2023-11-26T13:13:37.062Z,7.73
2023-11-26T13:16:20.718Z,5.93
2023-11-26T13:18:53.645Z,6.53
2023-11-26T13:21:23.238Z,5.83
2023-11-26T13:23:50.117Z,6.77
2023-11-26T13:26:17.770Z,6.67
2023-11-26T13:28:47.615Z,10.67
2023-11-26T13:31:17.654Z,7.37
2023-11-26T13:33:52.318Z,5.60
2023-11-26T13:36:19.678Z,8.93
2023-11-26T13:38:46.558Z,4.33
2023-11-26T13:41:14.390Z,8.27
2023-11-26T13:43:50.946Z,5.47
2023-11-26T13:46:20.128Z,4.80
2023-11-26T13:48:52.055Z,5.53
2023-11-26T13:51:30.918Z,7.63
2023-11-26T13:53:57.778Z,4.67
2023-11-26T13:56:27.086Z,5.40
2023-11-26T13:58:53.994Z,6.50
2023-11-26T14:01:37.435Z,5.27
2023-11-26T14:04:37.058Z,6.80
2023-11-26T14:07:08.835Z,6.83
2023-11-26T14:09:35.760Z,5.17
2023-11-26T14:12:02.562Z,6.10
2023-11-26T14:14:29.789Z,5.13
2023-11-26T14:20:05.722Z,5.90
2023-11-26T14:22:49.254Z,7.60
2023-11-26T14:25:17.090Z,7.60
2023-11-26T14:27:45.090Z,5.80
2023-11-26T14:30:14.049Z,7.97
2023-11-26T14:32:43.821Z,7.33
2023-11-26T14:35:15.493Z,7.50
2023-11-26T14:37:43.891Z,7.77
2023-11-26T14:40:12.404Z,6.87
2023-11-26T14:42:43.252Z,11.07
2023-11-26T14:45:13.949Z,5.80
2023-11-26T14:47:47.758Z,6.53
2023-11-26T14:50:14.848Z,6.27
2023-11-26T14:52:41.999Z,8.20
2023-11-26T14:55:14.787Z,7.93
2023-11-26T14:57:44.838Z,16.87
2023-11-26T15:00:13.112Z,8.77
2023-11-26T15:02:40.536Z,8.47
2023-11-26T15:05:08.262Z,7.50
2023-11-26T15:07:37.846Z,9.97
2023-11-26T15:10:12.332Z,11.40
2023-11-26T15:12:39.531Z,7.70
2023-11-26T15:15:07.143Z,6.33
2023-11-26T15:17:34.042Z,11.47
2023-11-26T15:20:03.340Z,8.60
2023-11-26T15:22:30.458Z,9.17
2023-11-26T15:24:57.533Z,8.70
2023-11-26T15:27:24.805Z,9.13
2023-11-26T15:29:52.868Z,11.23
2023-11-26T15:32:19.729Z,8.57
2023-11-26T15:34:51.479Z,8.43
2023-11-26T15:37:18.428Z,7.70
2023-11-26T15:39:50.457Z,11.20
2023-11-26T15:42:17.485Z,6.67
2023-11-26T15:44:44.357Z,9.40
2023-11-26T15:47:13.011Z,12.80
2023-11-26T15:49:40.737Z,12.63
2023-11-26T15:52:09.922Z,11.73
2023-11-26T15:54:41.636Z,12.03
2023-11-26T15:57:09.842Z,12.63
2023-11-26T15:59:38.742Z,12.77
2023-11-26T16:02:05.710Z,16.57
2023-11-26T16:04:34.791Z,13.03
2023-11-26T16:07:06.534Z,14.10
2023-11-26T16:09:36.055Z,12.40
2023-11-26T16:12:06.712Z,13.40
2023-11-26T16:14:33.564Z,16.03
2023-11-26T16:17:10.984Z,14.73
2023-11-26T16:19:47.946Z,11.97
2023-11-26T16:22:15.151Z,13.70
2023-11-26T16:24:42.185Z,9.40
2023-11-26T16:27:09.105Z,13.33
2023-11-26T16:29:36.036Z,12.23
2023-11-26T16:32:03.199Z,11.97
2023-11-26T16:34:30.323Z,12.57
2023-11-26T16:36:57.361Z,11.20
2023-11-26T16:39:24.224Z,10.47
2023-11-26T16:41:54.191Z,13.80
2023-11-26T16:44:27.733Z,11.53
2023-11-26T16:46:54.692Z,11.83
2023-11-26T16:49:21.697Z,8.87
2023-11-26T16:51:48.732Z,8.87
2023-11-26T16:54:15.637Z,12.57
2023-11-26T16:56:43.277Z,11.27
2023-11-26T16:59:10.260Z,13.37
2023-11-26T17:01:37.286Z,11.20
2023-11-26T17:04:05.608Z,11.17
2023-11-26T17:06:32.642Z,13.37
2023-11-26T17:08:59.913Z,15.03
2023-11-26T17:11:26.778Z,12.10
2023-11-26T17:13:53.776Z,11.67
2023-11-26T17:16:20.932Z,11.00
2023-11-26T17:18:47.964Z,12.87
2023-11-26T17:21:14.851Z,9.77
2023-11-26T17:23:45.130Z,16.93
2023-11-26T17:26:23.228Z,10.57
2023-11-26T17:28:52.320Z,11.23
2023-11-26T17:31:23.017Z,11.50
2023-11-26T17:33:50.084Z,16.10
2023-11-26T17:36:16.893Z,12.00
2023-11-26T17:38:43.743Z,13.43
2023-11-26T17:41:10.577Z,12.00
2023-11-26T17:43:40.794Z,16.87
2023-11-26T17:46:07.770Z,14.53
2023-11-26T17:48:35.245Z,16.07
2023-11-26T17:51:02.104Z,14.23
2023-11-26T17:53:28.990Z,14.00
2023-11-26T17:55:58.251Z,11.57
2023-11-26T17:58:28.459Z,15.47
2023-11-26T18:00:57.768Z,17.70
2023-11-26T18:03:25.097Z,13.13
2023-11-26T18:05:52.856Z,16.03
2023-11-26T18:08:19.744Z,14.33
2023-11-26T18:10:48.827Z,15.07
2023-11-26T18:13:15.684Z,11.63
2023-11-26T18:15:42.544Z,13.17
2023-11-26T18:18:09.550Z,16.93
2023-11-26T18:20:36.451Z,13.63
2023-11-26T18:23:05.464Z,10.90
2023-11-26T18:25:35.234Z,14.17
2023-11-26T18:28:02.158Z,13.67
2023-11-26T18:30:29.061Z,15.60
2023-11-26T18:32:55.923Z,13.83
2023-11-26T18:35:24.855Z,13.77
2023-11-26T18:37:51.878Z,17.03
2023-11-26T18:40:18.987Z,12.90
2023-11-26T18:42:50.605Z,15.43
2023-11-26T18:45:21.259Z,15.17
2023-11-26T18:47:48.060Z,11.97
2023-11-26T18:50:17.786Z,11.73
2023-11-26T18:52:46.746Z,13.23
2023-11-26T18:55:13.660Z,10.97
2023-11-26T18:57:40.821Z,12.30
2023-11-26T19:00:10.802Z,12.63
2023-11-26T19:02:37.831Z,11.10
2023-11-26T19:05:07.267Z,11.87
2023-11-26T19:07:38.909Z,11.37
2023-11-26T19:10:06.259Z,10.93
2023-11-26T19:12:33.152Z,9.93
2023-11-26T19:15:02.980Z,16.80
2023-11-26T19:17:32.156Z,12.90
2023-11-26T19:19:59.027Z,14.63
2023-11-26T19:22:28.004Z,12.80
2023-11-26T19:24:54.922Z,12.77
2023-11-26T19:27:21.915Z,11.83
2023-11-26T19:29:48.841Z,12.33
2023-11-26T19:32:22.550Z,13.47
2023-11-26T19:34:51.985Z,10.53
2023-11-26T19:37:21.539Z,14.20
2023-11-26T19:39:50.884Z,13.40
2023-11-26T19:42:17.805Z,12.83
2023-11-26T19:44:45.036Z,10.83
2023-11-26T19:47:12.579Z,13.33
2023-11-26T19:49:39.461Z,13.90
2023-11-26T19:52:06.965Z,11.60
2023-11-26T19:54:34.008Z,13.53
2023-11-26T19:57:00.984Z,11.40
2023-11-26T19:59:30.862Z,13.03
2023-11-26T20:02:00.688Z,12.57
2023-11-26T20:04:27.677Z,13.77
2023-11-26T20:06:54.643Z,13.13
2023-11-26T20:09:21.913Z,12.70
2023-11-26T20:11:48.725Z,14.27
2023-11-26T20:14:15.707Z,13.93
2023-11-26T20:16:44.831Z,12.60
2023-11-26T20:19:11.839Z,15.20
2023-11-26T20:21:38.711Z,14.83
2023-11-26T20:24:19.164Z,15.43
2023-11-26T20:26:46.052Z,13.20
2023-11-26T20:29:15.244Z,10.73
2023-11-26T20:31:42.989Z,12.50
2023-11-26T20:34:09.867Z,14.40
2023-11-26T20:36:39.035Z,13.73
2023-11-26T20:39:08.773Z,18.50
2023-11-26T20:41:36.512Z,13.93
2023-11-26T20:44:03.566Z,13.73
2023-11-26T20:46:30.558Z,13.77
2023-11-26T20:48:57.518Z,13.00
2023-11-26T20:51:32.285Z,13.67
2023-11-26T20:54:05.216Z,14.47
2023-11-26T20:56:32.194Z,12.93
2023-11-26T20:58:59.755Z,13.87
2023-11-26T21:01:31.143Z,13.53
2023-11-26T21:03:59.323Z,14.37
2023-11-26T21:06:30.371Z,12.10
2023-11-26T21:08:57.233Z,14.90
2023-11-26T21:11:28.405Z,13.87
2023-11-26T21:13:55.338Z,13.03
2023-11-26T21:16:22.440Z,13.17
2023-11-26T21:18:51.579Z,13.37
2023-11-26T21:21:21.001Z,14.67
2023-11-26T21:23:47.861Z,12.53
2023-11-26T21:26:14.882Z,15.87
2023-11-26T21:28:41.817Z,11.80
2023-11-26T21:31:09.216Z,14.37
2023-11-26T21:33:38.365Z,15.13
2023-11-26T21:36:05.740Z,14.00
2023-11-26T21:38:32.843Z,17.23
2023-11-26T21:41:07.019Z,21.03
2023-11-26T21:43:37.840Z,15.67
2023-11-26T21:46:08.545Z,16.27
2023-11-26T21:48:35.538Z,15.77
2023-11-26T21:51:04.946Z,13.90
2023-11-26T21:53:31.766Z,18.00
2023-11-26T21:55:58.624Z,14.67
2023-11-26T21:58:25.461Z,14.90
2023-11-26T22:00:54.911Z,12.23
2023-11-26T22:03:21.983Z,14.27
2023-11-26T22:05:48.964Z,13.03
2023-11-26T22:08:18.246Z,12.57
2023-11-26T22:10:47.300Z,10.80
2023-11-26T22:13:14.194Z,12.00
2023-11-26T22:15:46.534Z,15.20
2023-11-26T22:18:13.416Z,12.67
2023-11-26T22:20:40.387Z,13.67
2023-11-26T22:23:07.222Z,10.67
2023-11-26T22:25:34.086Z,10.60
2023-11-26T22:30:56.068Z,13.73
2023-11-26T22:33:45.757Z,14.40
2023-11-26T22:36:22.239Z,11.97
2023-11-26T22:38:49.462Z,11.37
2023-11-26T22:41:28.888Z,12.00
2023-11-26T22:43:56.782Z,11.83
2023-11-26T22:46:30.597Z,12.90
2023-11-26T22:49:00.346Z,14.37
2023-11-26T22:51:34.265Z,10.77
2023-11-26T22:54:01.565Z,15.50
2023-11-26T22:56:28.428Z,15.50
2023-11-26T22:58:57.900Z,14.20
2023-11-26T23:01:25.320Z,14.77
2023-11-26T23:03:53.077Z,15.17
2023-11-26T23:06:20.148Z,10.53
2023-11-26T23:08:48.126Z,11.07
2023-11-26T23:11:21.761Z,10.13
2023-11-26T23:13:52.764Z,9.87
2023-11-26T23:16:25.238Z,12.83
2023-11-26T23:18:52.213Z,13.67
2023-11-26T23:21:19.147Z,11.20
2023-11-26T23:23:51.824Z,10.67
2023-11-26T23:26:24.875Z,9.77
2023-11-26T23:28:54.263Z,13.90
2023-11-26T23:31:22.397Z,10.97
2023-11-26T23:33:49.919Z,15.73
2023-11-26T23:36:17.453Z,13.17
2023-11-26T23:38:44.476Z,14.07
2023-11-26T23:41:12.689Z,10.83
2023-11-26T23:43:41.015Z,12.17
2023-11-26T23:46:19.886Z,13.97
2023-11-26T23:48:49.659Z,15.40
2023-11-26T23:51:19.039Z,12.63
2023-11-26T23:53:48.052Z,13.90
2023-11-26T23:56:17.198Z,12.80
2023-11-26T23:58:46.850Z,12.47
